sensor_id;sensor_type;location;lat;lon;timestamp;temperature;humidity
831;DHT22;397;50.564;7.272;2023-07-13T00:01:54;19.00;99.90
831;DHT22;397;50.564;7.272;2023-07-13T00:04:23;19.10;99.90
831;DHT22;397;50.564;7.272;2023-07-13T00:06:53;19.00;99.90
831;DHT22;397;50.564;7.272;2023-07-13T00:09:21;19.00;99.90
831;DHT22;397;50.564;7.272;2023-07-13T00:11:54;19.00;99.90
831;DHT22;397;50.564;7.272;2023-07-13T00:14:23;19.00;99.90
831;DHT22;397;50.564;7.272;2023-07-13T00:16:51;18.90;99.90
831;DHT22;397;50.564;7.272;2023-07-13T00:19:18;18.90;99.90
831;DHT22;397;50.564;7.272;2023-07-13T00:21:46;18.70;99.90
831;DHT22;397;50.564;7.272;2023-07-13T00:24:16;18.70;99.90
831;DHT22;397;50.564;7.272;2023-07-13T00:26:46;18.40;99.90
831;DHT22;397;50.564;7.272;2023-07-13T00:29:13;18.10;99.90
831;DHT22;397;50.564;7.272;2023-07-13T00:31:42;17.90;99.90
831;DHT22;397;50.564;7.272;2023-07-13T00:34:11;17.60;99.90
831;DHT22;397;50.564;7.272;2023-07-13T00:36:38;17.40;99.90
831;DHT22;397;50.564;7.272;2023-07-13T00:39:06;17.40;99.90
831;DHT22;397;50.564;7.272;2023-07-13T00:41:34;17.50;99.90
831;DHT22;397;50.564;7.272;2023-07-13T00:44:03;17.50;99.90
831;DHT22;397;50.564;7.272;2023-07-13T00:46:33;17.50;99.90
831;DHT22;397;50.564;7.272;2023-07-13T00:49:06;17.40;99.90
831;DHT22;397;50.564;7.272;2023-07-13T00:54:10;17.20;99.90
831;DHT22;397;50.564;7.272;2023-07-13T00:56:40;17.20;99.90
831;DHT22;397;50.564;7.272;2023-07-13T00:59:10;17.30;99.90
831;DHT22;397;50.564;7.272;2023-07-13T01:01:39;17.20;99.90
831;DHT22;397;50.564;7.272;2023-07-13T01:04:07;17.00;99.90
831;DHT22;397;50.564;7.272;2023-07-13T01:06:36;16.80;99.90
831;DHT22;397;50.564;7.272;2023-07-13T01:09:07;16.70;99.90
831;DHT22;397;50.564;7.272;2023-07-13T01:11:35;16.60;99.90
831;DHT22;397;50.564;7.272;2023-07-13T01:14:03;16.50;99.90
831;DHT22;397;50.564;7.272;2023-07-13T01:16:32;16.50;99.90
831;DHT22;397;50.564;7.272;2023-07-13T01:19:01;16.50;99.90
831;DHT22;397;50.564;7.272;2023-07-13T01:21:32;16.60;99.90
831;DHT22;397;50.564;7.272;2023-07-13T01:24:01;16.60;99.90
831;DHT22;397;50.564;7.272;2023-07-13T01:26:28;16.50;99.90
831;DHT22;397;50.564;7.272;2023-07-13T01:28:56;16.60;99.90
831;DHT22;397;50.564;7.272;2023-07-13T01:31:23;16.60;99.90
831;DHT22;397;50.564;7.272;2023-07-13T01:33:51;16.50;99.90
831;DHT22;397;50.564;7.272;2023-07-13T01:36:19;16.40;99.90
831;DHT22;397;50.564;7.272;2023-07-13T01:38:47;16.30;99.90
831;DHT22;397;50.564;7.272;2023-07-13T01:41:15;16.20;99.90
831;DHT22;397;50.564;7.272;2023-07-13T01:43:42;16.20;99.90
831;DHT22;397;50.564;7.272;2023-07-13T01:46:10;16.20;99.90
831;DHT22;397;50.564;7.272;2023-07-13T01:48:37;16.10;99.90
831;DHT22;397;50.564;7.272;2023-07-13T01:51:05;16.00;99.90
831;DHT22;397;50.564;7.272;2023-07-13T01:53:32;16.00;99.90
831;DHT22;397;50.564;7.272;2023-07-13T01:56:00;16.10;99.90
831;DHT22;397;50.564;7.272;2023-07-13T01:58:27;16.10;99.90
831;DHT22;397;50.564;7.272;2023-07-13T02:00:55;16.00;99.90
831;DHT22;397;50.564;7.272;2023-07-13T02:03:22;16.00;99.90
831;DHT22;397;50.564;7.272;2023-07-13T02:05:50;15.90;99.90
831;DHT22;397;50.564;7.272;2023-07-13T02:08:18;15.80;99.90
831;DHT22;397;50.564;7.272;2023-07-13T02:10:46;15.90;99.90
831;DHT22;397;50.564;7.272;2023-07-13T02:13:13;15.80;99.90
831;DHT22;397;50.564;7.272;2023-07-13T02:15:41;15.70;99.90
831;DHT22;397;50.564;7.272;2023-07-13T02:18:08;15.70;99.90
831;DHT22;397;50.564;7.272;2023-07-13T02:20:36;15.70;99.90
831;DHT22;397;50.564;7.272;2023-07-13T02:23:04;15.70;99.90
831;DHT22;397;50.564;7.272;2023-07-13T02:25:31;15.70;99.90
831;DHT22;397;50.564;7.272;2023-07-13T02:27:59;15.70;99.90
831;DHT22;397;50.564;7.272;2023-07-13T02:30:27;15.70;99.90
831;DHT22;397;50.564;7.272;2023-07-13T02:32:56;15.70;99.90
831;DHT22;397;50.564;7.272;2023-07-13T02:35:24;15.50;99.90
831;DHT22;397;50.564;7.272;2023-07-13T02:37:52;15.60;99.90
831;DHT22;397;50.564;7.272;2023-07-13T02:40:19;15.50;99.90
831;DHT22;397;50.564;7.272;2023-07-13T02:42:47;15.50;99.90
831;DHT22;397;50.564;7.272;2023-07-13T02:45:14;15.50;99.90
831;DHT22;397;50.564;7.272;2023-07-13T02:47:42;15.30;99.90
831;DHT22;397;50.564;7.272;2023-07-13T02:50:10;15.30;99.90
831;DHT22;397;50.564;7.272;2023-07-13T02:52:37;15.40;99.90
831;DHT22;397;50.564;7.272;2023-07-13T02:55:05;15.20;99.90
831;DHT22;397;50.564;7.272;2023-07-13T02:57:32;15.50;99.90
831;DHT22;397;50.564;7.272;2023-07-13T03:00:02;15.40;99.90
831;DHT22;397;50.564;7.272;2023-07-13T03:02:34;15.40;99.90
831;DHT22;397;50.564;7.272;2023-07-13T03:05:02;15.30;99.90
831;DHT22;397;50.564;7.272;2023-07-13T03:07:31;15.00;99.90
831;DHT22;397;50.564;7.272;2023-07-13T03:09:59;15.20;99.90
831;DHT22;397;50.564;7.272;2023-07-13T03:12:26;15.20;99.90
831;DHT22;397;50.564;7.272;2023-07-13T03:14:54;15.20;99.90
831;DHT22;397;50.564;7.272;2023-07-13T03:17:21;15.20;99.90
831;DHT22;397;50.564;7.272;2023-07-13T03:19:49;15.20;99.90
831;DHT22;397;50.564;7.272;2023-07-13T03:22:18;15.10;99.90
831;DHT22;397;50.564;7.272;2023-07-13T03:24:46;15.20;99.90
831;DHT22;397;50.564;7.272;2023-07-13T03:27:17;15.20;99.90
831;DHT22;397;50.564;7.272;2023-07-13T03:29:44;15.50;99.90
831;DHT22;397;50.564;7.272;2023-07-13T03:32:12;15.50;99.90
831;DHT22;397;50.564;7.272;2023-07-13T03:34:39;15.50;99.90
831;DHT22;397;50.564;7.272;2023-07-13T03:37:07;15.40;99.90
831;DHT22;397;50.564;7.272;2023-07-13T03:39:34;15.30;99.90
831;DHT22;397;50.564;7.272;2023-07-13T03:42:02;15.40;99.90
831;DHT22;397;50.564;7.272;2023-07-13T03:44:30;15.60;99.90
831;DHT22;397;50.564;7.272;2023-07-13T03:46:57;15.50;99.90
831;DHT22;397;50.564;7.272;2023-07-13T03:49:25;15.40;99.90
831;DHT22;397;50.564;7.272;2023-07-13T03:51:52;15.30;99.90
831;DHT22;397;50.564;7.272;2023-07-13T03:54:20;15.40;99.90
831;DHT22;397;50.564;7.272;2023-07-13T03:56:47;15.40;99.90
831;DHT22;397;50.564;7.272;2023-07-13T03:59:15;15.40;99.90
831;DHT22;397;50.564;7.272;2023-07-13T04:01:43;15.30;99.90
831;DHT22;397;50.564;7.272;2023-07-13T04:04:11;15.40;99.90
831;DHT22;397;50.564;7.272;2023-07-13T04:06:38;15.60;99.90
831;DHT22;397;50.564;7.272;2023-07-13T04:09:06;15.90;99.90
831;DHT22;397;50.564;7.272;2023-07-13T04:11:34;16.20;99.90
831;DHT22;397;50.564;7.272;2023-07-13T04:14:05;16.20;99.90
831;DHT22;397;50.564;7.272;2023-07-13T04:16:33;16.20;99.90
831;DHT22;397;50.564;7.272;2023-07-13T04:19:01;16.40;99.90
831;DHT22;397;50.564;7.272;2023-07-13T04:21:30;16.70;99.90
831;DHT22;397;50.564;7.272;2023-07-13T04:23:58;16.70;99.90
831;DHT22;397;50.564;7.272;2023-07-13T04:26:26;16.80;99.90
831;DHT22;397;50.564;7.272;2023-07-13T04:28:53;16.50;99.90
831;DHT22;397;50.564;7.272;2023-07-13T04:31:21;16.60;99.90
831;DHT22;397;50.564;7.272;2023-07-13T04:33:49;16.60;99.90
831;DHT22;397;50.564;7.272;2023-07-13T04:36:17;16.70;99.90
831;DHT22;397;50.564;7.272;2023-07-13T04:38:44;16.80;99.90
831;DHT22;397;50.564;7.272;2023-07-13T04:41:13;16.80;99.90
831;DHT22;397;50.564;7.272;2023-07-13T04:43:41;16.90;99.90
831;DHT22;397;50.564;7.272;2023-07-13T04:46:12;17.10;99.90
831;DHT22;397;50.564;7.272;2023-07-13T04:48:40;17.10;99.90
831;DHT22;397;50.564;7.272;2023-07-13T04:51:08;17.10;99.90
831;DHT22;397;50.564;7.272;2023-07-13T04:53:36;17.20;99.90
831;DHT22;397;50.564;7.272;2023-07-13T04:56:04;17.10;99.90
831;DHT22;397;50.564;7.272;2023-07-13T04:58:32;17.30;99.90
831;DHT22;397;50.564;7.272;2023-07-13T05:01:01;17.30;99.90
831;DHT22;397;50.564;7.272;2023-07-13T05:03:29;17.70;99.90
831;DHT22;397;50.564;7.272;2023-07-13T05:05:59;17.80;99.90
831;DHT22;397;50.564;7.272;2023-07-13T05:08:27;18.00;99.90
831;DHT22;397;50.564;7.272;2023-07-13T05:10:55;17.90;99.90
831;DHT22;397;50.564;7.272;2023-07-13T05:13:22;18.10;99.90
831;DHT22;397;50.564;7.272;2023-07-13T05:15:58;18.30;99.90
831;DHT22;397;50.564;7.272;2023-07-13T05:18:26;18.40;99.90
831;DHT22;397;50.564;7.272;2023-07-13T05:21:01;18.80;99.90
831;DHT22;397;50.564;7.272;2023-07-13T05:23:29;19.90;99.90
831;DHT22;397;50.564;7.272;2023-07-13T05:25:58;21.80;99.90
831;DHT22;397;50.564;7.272;2023-07-13T05:28:26;23.90;99.90
831;DHT22;397;50.564;7.272;2023-07-13T05:30:54;24.60;99.90
831;DHT22;397;50.564;7.272;2023-07-13T05:33:22;24.50;97.80
831;DHT22;397;50.564;7.272;2023-07-13T05:35:50;24.50;95.90
831;DHT22;397;50.564;7.272;2023-07-13T05:38:18;23.10;99.90
831;DHT22;397;50.564;7.272;2023-07-13T05:40:46;24.30;99.90
831;DHT22;397;50.564;7.272;2023-07-13T05:43:14;24.90;98.80
831;DHT22;397;50.564;7.272;2023-07-13T05:45:42;26.30;92.90
831;DHT22;397;50.564;7.272;2023-07-13T05:48:09;27.40;84.50
831;DHT22;397;50.564;7.272;2023-07-13T05:50:37;27.60;76.90
831;DHT22;397;50.564;7.272;2023-07-13T05:53:04;26.60;72.90
831;DHT22;397;50.564;7.272;2023-07-13T05:55:32;25.50;74.30
831;DHT22;397;50.564;7.272;2023-07-13T05:58:01;26.00;76.50
831;DHT22;397;50.564;7.272;2023-07-13T06:00:28;26.40;73.90
831;DHT22;397;50.564;7.272;2023-07-13T06:02:56;26.90;70.40
831;DHT22;397;50.564;7.272;2023-07-13T06:05:25;27.50;69.60
831;DHT22;397;50.564;7.272;2023-07-13T06:07:53;28.70;66.00
831;DHT22;397;50.564;7.272;2023-07-13T06:10:21;28.40;64.40
831;DHT22;397;50.564;7.272;2023-07-13T06:12:48;28.40;61.80
831;DHT22;397;50.564;7.272;2023-07-13T06:15:16;28.20;61.10
831;DHT22;397;50.564;7.272;2023-07-13T06:17:43;27.60;60.10
831;DHT22;397;50.564;7.272;2023-07-13T06:20:11;27.50;60.00
831;DHT22;397;50.564;7.272;2023-07-13T06:22:39;27.20;62.50
831;DHT22;397;50.564;7.272;2023-07-13T06:25:07;27.30;60.90
831;DHT22;397;50.564;7.272;2023-07-13T06:27:35;27.80;60.70
831;DHT22;397;50.564;7.272;2023-07-13T06:30:02;27.70;59.90
831;DHT22;397;50.564;7.272;2023-07-13T06:32:30;28.60;58.80
831;DHT22;397;50.564;7.272;2023-07-13T06:34:57;28.80;56.80
831;DHT22;397;50.564;7.272;2023-07-13T06:37:25;29.30;56.60
831;DHT22;397;50.564;7.272;2023-07-13T06:39:52;28.90;55.60
831;DHT22;397;50.564;7.272;2023-07-13T06:42:20;28.80;56.20
831;DHT22;397;50.564;7.272;2023-07-13T06:44:47;28.40;55.70
831;DHT22;397;50.564;7.272;2023-07-13T06:47:15;27.70;56.70
831;DHT22;397;50.564;7.272;2023-07-13T06:49:42;27.40;57.10
831;DHT22;397;50.564;7.272;2023-07-13T06:52:10;27.10;57.30
831;DHT22;397;50.564;7.272;2023-07-13T06:54:37;26.40;57.40
831;DHT22;397;50.564;7.272;2023-07-13T06:57:05;26.20;58.90
831;DHT22;397;50.564;7.272;2023-07-13T06:59:32;25.30;59.60
831;DHT22;397;50.564;7.272;2023-07-13T07:02:00;25.10;60.80
831;DHT22;397;50.564;7.272;2023-07-13T07:04:27;25.60;61.50
831;DHT22;397;50.564;7.272;2023-07-13T07:06:55;25.20;61.00
831;DHT22;397;50.564;7.272;2023-07-13T07:09:22;25.20;61.10
831;DHT22;397;50.564;7.272;2023-07-13T07:11:50;25.30;62.10
831;DHT22;397;50.564;7.272;2023-07-13T07:14:17;25.00;62.80
831;DHT22;397;50.564;7.272;2023-07-13T07:16:45;24.30;62.30
831;DHT22;397;50.564;7.272;2023-07-13T07:19:12;24.20;65.00
831;DHT22;397;50.564;7.272;2023-07-13T07:21:40;24.60;65.80
831;DHT22;397;50.564;7.272;2023-07-13T07:24:07;24.80;64.90
831;DHT22;397;50.564;7.272;2023-07-13T07:26:35;24.80;65.30
831;DHT22;397;50.564;7.272;2023-07-13T07:29:02;24.70;65.70
831;DHT22;397;50.564;7.272;2023-07-13T07:31:30;24.90;64.20
831;DHT22;397;50.564;7.272;2023-07-13T07:33:57;24.80;63.90
831;DHT22;397;50.564;7.272;2023-07-13T07:36:25;24.50;65.70
831;DHT22;397;50.564;7.272;2023-07-13T07:38:52;24.90;65.80
831;DHT22;397;50.564;7.272;2023-07-13T07:41:20;25.10;65.20
831;DHT22;397;50.564;7.272;2023-07-13T07:43:48;25.10;65.30
831;DHT22;397;50.564;7.272;2023-07-13T07:46:15;24.90;64.50
831;DHT22;397;50.564;7.272;2023-07-13T07:48:43;24.90;65.90
831;DHT22;397;50.564;7.272;2023-07-13T07:51:10;25.10;66.40
831;DHT22;397;50.564;7.272;2023-07-13T07:53:38;25.40;65.80
831;DHT22;397;50.564;7.272;2023-07-13T07:56:05;25.00;64.30
831;DHT22;397;50.564;7.272;2023-07-13T07:58:33;24.90;65.80
831;DHT22;397;50.564;7.272;2023-07-13T08:01:05;24.70;66.50
831;DHT22;397;50.564;7.272;2023-07-13T08:03:33;25.30;66.60
831;DHT22;397;50.564;7.272;2023-07-13T08:06:01;25.30;65.10
831;DHT22;397;50.564;7.272;2023-07-13T08:08:28;25.20;65.40
831;DHT22;397;50.564;7.272;2023-07-13T08:10:56;24.90;64.30
831;DHT22;397;50.564;7.272;2023-07-13T08:13:23;24.70;66.50
831;DHT22;397;50.564;7.272;2023-07-13T08:15:51;24.90;66.40
831;DHT22;397;50.564;7.272;2023-07-13T08:18:18;24.50;66.10
831;DHT22;397;50.564;7.272;2023-07-13T08:20:46;24.60;65.80
831;DHT22;397;50.564;7.272;2023-07-13T08:23:13;25.10;68.00
831;DHT22;397;50.564;7.272;2023-07-13T08:25:42;25.30;65.90
831;DHT22;397;50.564;7.272;2023-07-13T08:28:11;25.20;65.50
831;DHT22;397;50.564;7.272;2023-07-13T08:30:39;25.20;66.30
831;DHT22;397;50.564;7.272;2023-07-13T08:33:07;25.30;66.60
831;DHT22;397;50.564;7.272;2023-07-13T08:35:34;25.60;65.20
831;DHT22;397;50.564;7.272;2023-07-13T08:38:02;25.30;65.50
831;DHT22;397;50.564;7.272;2023-07-13T08:40:29;25.20;69.30
831;DHT22;397;50.564;7.272;2023-07-13T08:42:58;25.70;68.90
831;DHT22;397;50.564;7.272;2023-07-13T08:45:33;25.70;66.40
831;DHT22;397;50.564;7.272;2023-07-13T08:48:04;25.20;67.30
831;DHT22;397;50.564;7.272;2023-07-13T08:50:35;25.20;67.80
831;DHT22;397;50.564;7.272;2023-07-13T08:53:04;24.90;70.80
831;DHT22;397;50.564;7.272;2023-07-13T08:55:34;25.00;71.30
831;DHT22;397;50.564;7.272;2023-07-13T08:58:13;24.50;71.10
831;DHT22;397;50.564;7.272;2023-07-13T09:03:20;25.00;70.40
831;DHT22;397;50.564;7.272;2023-07-13T09:05:52;24.60;70.90
831;DHT22;397;50.564;7.272;2023-07-13T09:10:58;24.60;72.90
831;DHT22;397;50.564;7.272;2023-07-13T09:16:12;24.90;71.90
831;DHT22;397;50.564;7.272;2023-07-13T09:18:45;25.20;69.30
831;DHT22;397;50.564;7.272;2023-07-13T09:21:15;25.10;67.70
831;DHT22;397;50.564;7.272;2023-07-13T09:23:44;25.10;65.00
831;DHT22;397;50.564;7.272;2023-07-13T09:28:44;25.30;64.70
831;DHT22;397;50.564;7.272;2023-07-13T09:31:37;25.40;64.90
831;DHT22;397;50.564;7.272;2023-07-13T09:33:56;25.50;64.50
831;DHT22;397;50.564;7.272;2023-07-13T09:36:28;25.40;63.00
831;DHT22;397;50.564;7.272;2023-07-13T09:39:02;25.60;61.60
831;DHT22;397;50.564;7.272;2023-07-13T09:41:39;25.80;60.70
831;DHT22;397;50.564;7.272;2023-07-13T09:44:17;25.70;59.90
831;DHT22;397;50.564;7.272;2023-07-13T09:46:53;25.60;59.40
831;DHT22;397;50.564;7.272;2023-07-13T09:49:17;25.60;59.20
831;DHT22;397;50.564;7.272;2023-07-13T09:51:45;25.60;59.30
831;DHT22;397;50.564;7.272;2023-07-13T09:54:24;25.10;58.70
831;DHT22;397;50.564;7.272;2023-07-13T09:56:58;25.40;60.10
831;DHT22;397;50.564;7.272;2023-07-13T09:59:35;25.40;59.50
831;DHT22;397;50.564;7.272;2023-07-13T10:02:22;25.60;60.10
831;DHT22;397;50.564;7.272;2023-07-13T10:04:34;25.90;59.50
831;DHT22;397;50.564;7.272;2023-07-13T10:07:07;25.40;59.70
831;DHT22;397;50.564;7.272;2023-07-13T10:09:34;25.20;59.90
831;DHT22;397;50.564;7.272;2023-07-13T10:12:02;25.10;61.10
831;DHT22;397;50.564;7.272;2023-07-13T10:14:30;25.20;60.50
831;DHT22;397;50.564;7.272;2023-07-13T10:16:59;25.30;61.00
831;DHT22;397;50.564;7.272;2023-07-13T10:19:32;25.20;60.80
831;DHT22;397;50.564;7.272;2023-07-13T10:22:02;25.10;60.30
831;DHT22;397;50.564;7.272;2023-07-13T10:24:33;25.10;61.40
831;DHT22;397;50.564;7.272;2023-07-13T10:27:05;25.20;61.20
831;DHT22;397;50.564;7.272;2023-07-13T10:29:37;24.80;58.10
831;DHT22;397;50.564;7.272;2023-07-13T10:32:09;24.90;57.40
831;DHT22;397;50.564;7.272;2023-07-13T10:34:36;25.10;57.00
831;DHT22;397;50.564;7.272;2023-07-13T10:37:06;25.50;57.00
831;DHT22;397;50.564;7.272;2023-07-13T10:39:36;25.30;55.60
831;DHT22;397;50.564;7.272;2023-07-13T10:42:06;25.30;55.70
831;DHT22;397;50.564;7.272;2023-07-13T10:44:35;25.70;56.60
831;DHT22;397;50.564;7.272;2023-07-13T10:47:06;25.70;56.00
831;DHT22;397;50.564;7.272;2023-07-13T10:49:35;25.50;55.80
831;DHT22;397;50.564;7.272;2023-07-13T10:52:04;25.60;56.00
831;DHT22;397;50.564;7.272;2023-07-13T10:54:34;25.80;55.60
831;DHT22;397;50.564;7.272;2023-07-13T10:57:20;25.60;54.80
831;DHT22;397;50.564;7.272;2023-07-13T11:00:35;25.90;54.70
831;DHT22;397;50.564;7.272;2023-07-13T11:02:28;26.00;54.00
831;DHT22;397;50.564;7.272;2023-07-13T11:04:53;25.80;53.50
831;DHT22;397;50.564;7.272;2023-07-13T11:07:27;25.90;53.90
831;DHT22;397;50.564;7.272;2023-07-13T11:09:57;25.50;54.70
831;DHT22;397;50.564;7.272;2023-07-13T11:12:28;25.40;55.10
831;DHT22;397;50.564;7.272;2023-07-13T11:15:03;25.40;55.00
831;DHT22;397;50.564;7.272;2023-07-13T11:17:37;25.70;54.10
831;DHT22;397;50.564;7.272;2023-07-13T11:22:50;25.60;54.10
831;DHT22;397;50.564;7.272;2023-07-13T11:25:30;25.40;54.70
831;DHT22;397;50.564;7.272;2023-07-13T11:33:45;25.50;55.40
831;DHT22;397;50.564;7.272;2023-07-13T11:36:12;25.50;55.90
831;DHT22;397;50.564;7.272;2023-07-13T11:38:40;25.60;54.80
831;DHT22;397;50.564;7.272;2023-07-13T11:41:35;25.60;55.10
831;DHT22;397;50.564;7.272;2023-07-13T11:44:19;25.60;54.90
831;DHT22;397;50.564;7.272;2023-07-13T11:46:54;25.70;54.50
831;DHT22;397;50.564;7.272;2023-07-13T11:49:24;25.50;53.70
831;DHT22;397;50.564;7.272;2023-07-13T11:51:53;25.50;54.50
831;DHT22;397;50.564;7.272;2023-07-13T11:54:43;25.60;54.70
831;DHT22;397;50.564;7.272;2023-07-13T11:59:46;25.60;54.40
831;DHT22;397;50.564;7.272;2023-07-13T12:02:29;25.50;54.60
831;DHT22;397;50.564;7.272;2023-07-13T12:04:57;25.60;54.30
831;DHT22;397;50.564;7.272;2023-07-13T12:07:32;25.80;54.10
831;DHT22;397;50.564;7.272;2023-07-13T12:10:17;26.10;54.20
831;DHT22;397;50.564;7.272;2023-07-13T12:12:54;26.00;53.90
831;DHT22;397;50.564;7.272;2023-07-13T12:15:18;26.10;54.10
831;DHT22;397;50.564;7.272;2023-07-13T12:17:46;26.00;53.50
831;DHT22;397;50.564;7.272;2023-07-13T12:20:27;25.50;53.50
831;DHT22;397;50.564;7.272;2023-07-13T12:22:55;25.50;54.10
831;DHT22;397;50.564;7.272;2023-07-13T12:25:24;25.10;54.40
831;DHT22;397;50.564;7.272;2023-07-13T12:27:52;25.10;55.40
831;DHT22;397;50.564;7.272;2023-07-13T12:30:30;25.50;56.10
831;DHT22;397;50.564;7.272;2023-07-13T12:33:06;25.70;56.40
831;DHT22;397;50.564;7.272;2023-07-13T12:35:30;25.70;56.20
831;DHT22;397;50.564;7.272;2023-07-13T12:38:00;25.90;55.30
831;DHT22;397;50.564;7.272;2023-07-13T12:40:33;25.60;55.60
831;DHT22;397;50.564;7.272;2023-07-13T12:43:01;25.40;56.00
831;DHT22;397;50.564;7.272;2023-07-13T12:45:31;25.10;56.90
831;DHT22;397;50.564;7.272;2023-07-13T12:48:04;25.20;57.70
831;DHT22;397;50.564;7.272;2023-07-13T12:50:37;25.20;57.20
831;DHT22;397;50.564;7.272;2023-07-13T12:53:09;25.30;56.50
831;DHT22;397;50.564;7.272;2023-07-13T12:55:46;25.50;56.70
831;DHT22;397;50.564;7.272;2023-07-13T12:58:17;25.20;56.00
831;DHT22;397;50.564;7.272;2023-07-13T13:00:50;25.10;55.70
831;DHT22;397;50.564;7.272;2023-07-13T13:03:36;25.20;56.00
831;DHT22;397;50.564;7.272;2023-07-13T13:06:06;25.40;56.10
831;DHT22;397;50.564;7.272;2023-07-13T13:08:35;25.80;56.30
831;DHT22;397;50.564;7.272;2023-07-13T13:11:03;26.00;56.20
831;DHT22;397;50.564;7.272;2023-07-13T13:13:31;25.90;55.80
831;DHT22;397;50.564;7.272;2023-07-13T13:16:08;25.80;56.20
831;DHT22;397;50.564;7.272;2023-07-13T13:18:32;25.70;56.90
831;DHT22;397;50.564;7.272;2023-07-13T13:21:01;25.90;56.50
831;DHT22;397;50.564;7.272;2023-07-13T13:23:29;26.00;56.30
831;DHT22;397;50.564;7.272;2023-07-13T13:25:56;25.50;56.10
831;DHT22;397;50.564;7.272;2023-07-13T13:28:24;25.40;56.30
831;DHT22;397;50.564;7.272;2023-07-13T13:30:52;25.70;56.60
831;DHT22;397;50.564;7.272;2023-07-13T13:33:21;25.70;56.70
831;DHT22;397;50.564;7.272;2023-07-13T13:35:49;25.70;56.00
831;DHT22;397;50.564;7.272;2023-07-13T13:38:23;26.00;56.80
831;DHT22;397;50.564;7.272;2023-07-13T13:40:50;26.30;57.10
831;DHT22;397;50.564;7.272;2023-07-13T13:43:25;26.30;56.70
831;DHT22;397;50.564;7.272;2023-07-13T13:45:55;26.00;56.30
831;DHT22;397;50.564;7.272;2023-07-13T13:48:34;25.80;56.50
831;DHT22;397;50.564;7.272;2023-07-13T13:51:09;25.40;57.20
831;DHT22;397;50.564;7.272;2023-07-13T13:53:33;25.50;57.50
831;DHT22;397;50.564;7.272;2023-07-13T13:56:00;25.40;58.20
831;DHT22;397;50.564;7.272;2023-07-13T13:58:28;25.40;57.60
831;DHT22;397;50.564;7.272;2023-07-13T14:00:56;25.60;57.70
831;DHT22;397;50.564;7.272;2023-07-13T14:03:24;25.70;58.00
831;DHT22;397;50.564;7.272;2023-07-13T14:05:52;26.00;57.90
831;DHT22;397;50.564;7.272;2023-07-13T14:08:21;26.10;58.40
831;DHT22;397;50.564;7.272;2023-07-13T14:10:54;26.20;58.00
831;DHT22;397;50.564;7.272;2023-07-13T14:13:28;26.30;57.90
831;DHT22;397;50.564;7.272;2023-07-13T14:15:56;26.30;57.70
831;DHT22;397;50.564;7.272;2023-07-13T14:18:25;26.20;57.50
831;DHT22;397;50.564;7.272;2023-07-13T14:20:53;25.70;57.30
831;DHT22;397;50.564;7.272;2023-07-13T14:23:21;25.60;55.70
831;DHT22;397;50.564;7.272;2023-07-13T14:25:48;25.70;55.30
831;DHT22;397;50.564;7.272;2023-07-13T14:31:04;26.00;55.10
831;DHT22;397;50.564;7.272;2023-07-13T14:33:31;25.60;54.80
831;DHT22;397;50.564;7.272;2023-07-13T14:35:59;25.80;55.50
831;DHT22;397;50.564;7.272;2023-07-13T14:38:27;25.60;55.30
831;DHT22;397;50.564;7.272;2023-07-13T14:40:54;25.80;55.30
831;DHT22;397;50.564;7.272;2023-07-13T14:43:22;25.80;55.30
831;DHT22;397;50.564;7.272;2023-07-13T14:45:51;25.80;56.20
831;DHT22;397;50.564;7.272;2023-07-13T14:48:21;25.70;55.60
831;DHT22;397;50.564;7.272;2023-07-13T14:50:55;25.80;55.60
831;DHT22;397;50.564;7.272;2023-07-13T14:53:28;26.20;56.00
831;DHT22;397;50.564;7.272;2023-07-13T14:55:54;26.10;55.50
831;DHT22;397;50.564;7.272;2023-07-13T14:58:22;26.20;55.80
831;DHT22;397;50.564;7.272;2023-07-13T15:00:50;25.70;55.30
831;DHT22;397;50.564;7.272;2023-07-13T15:03:21;25.60;55.70
831;DHT22;397;50.564;7.272;2023-07-13T15:05:51;25.50;56.30
831;DHT22;397;50.564;7.272;2023-07-13T15:08:19;25.40;56.30
831;DHT22;397;50.564;7.272;2023-07-13T15:10:47;25.60;56.10
831;DHT22;397;50.564;7.272;2023-07-13T15:13:20;25.60;56.30
831;DHT22;397;50.564;7.272;2023-07-13T15:15:53;25.60;55.90
831;DHT22;397;50.564;7.272;2023-07-13T15:18:37;25.70;56.30
831;DHT22;397;50.564;7.272;2023-07-13T15:21:12;25.70;56.40
831;DHT22;397;50.564;7.272;2023-07-13T15:23:43;25.80;55.60
831;DHT22;397;50.564;7.272;2023-07-13T15:26:15;25.40;55.50
831;DHT22;397;50.564;7.272;2023-07-13T15:28:44;25.70;56.50
831;DHT22;397;50.564;7.272;2023-07-13T15:31:31;25.90;55.80
831;DHT22;397;50.564;7.272;2023-07-13T15:33:59;26.10;55.70
831;DHT22;397;50.564;7.272;2023-07-13T15:36:27;25.70;56.00
831;DHT22;397;50.564;7.272;2023-07-13T15:38:55;25.70;56.60
831;DHT22;397;50.564;7.272;2023-07-13T15:41:26;25.70;55.90
831;DHT22;397;50.564;7.272;2023-07-13T15:43:55;25.60;56.60
831;DHT22;397;50.564;7.272;2023-07-13T15:46:27;25.60;56.50
831;DHT22;397;50.564;7.272;2023-07-13T15:48:57;25.50;56.80
831;DHT22;397;50.564;7.272;2023-07-13T15:51:27;25.60;56.70
831;DHT22;397;50.564;7.272;2023-07-13T15:53:58;25.60;56.50
831;DHT22;397;50.564;7.272;2023-07-13T15:56:27;25.60;56.40
831;DHT22;397;50.564;7.272;2023-07-13T15:58:56;25.40;55.60
831;DHT22;397;50.564;7.272;2023-07-13T16:01:24;25.20;56.20
831;DHT22;397;50.564;7.272;2023-07-13T16:03:51;25.20;56.40
831;DHT22;397;50.564;7.272;2023-07-13T16:06:22;25.30;56.30
831;DHT22;397;50.564;7.272;2023-07-13T16:08:52;25.20;56.50
831;DHT22;397;50.564;7.272;2023-07-13T16:11:29;25.10;56.60
831;DHT22;397;50.564;7.272;2023-07-13T16:13:58;25.40;56.80
831;DHT22;397;50.564;7.272;2023-07-13T16:16:33;25.20;56.00
831;DHT22;397;50.564;7.272;2023-07-13T16:19:04;25.30;56.60
831;DHT22;397;50.564;7.272;2023-07-13T16:21:29;25.20;57.30
831;DHT22;397;50.564;7.272;2023-07-13T16:23:58;25.20;57.30
831;DHT22;397;50.564;7.272;2023-07-13T16:26:34;25.10;56.80
831;DHT22;397;50.564;7.272;2023-07-13T16:29:15;25.20;56.60
831;DHT22;397;50.564;7.272;2023-07-13T16:34:31;25.00;57.20
831;DHT22;397;50.564;7.272;2023-07-13T16:36:59;24.90;56.90
831;DHT22;397;50.564;7.272;2023-07-13T16:39:29;25.00;57.20
831;DHT22;397;50.564;7.272;2023-07-13T16:41:58;24.90;57.30
831;DHT22;397;50.564;7.272;2023-07-13T16:44:31;24.80;57.20
831;DHT22;397;50.564;7.272;2023-07-13T16:46:55;24.70;56.90
831;DHT22;397;50.564;7.272;2023-07-13T16:49:33;24.70;57.30
831;DHT22;397;50.564;7.272;2023-07-13T16:52:03;24.70;57.30
831;DHT22;397;50.564;7.272;2023-07-13T16:54:33;24.80;57.40
831;DHT22;397;50.564;7.272;2023-07-13T16:57:06;24.80;57.10
831;DHT22;397;50.564;7.272;2023-07-13T16:59:33;24.70;57.30
831;DHT22;397;50.564;7.272;2023-07-13T17:02:04;24.80;57.80
831;DHT22;397;50.564;7.272;2023-07-13T17:04:31;24.80;57.90
831;DHT22;397;50.564;7.272;2023-07-13T17:07:00;24.70;57.90
831;DHT22;397;50.564;7.272;2023-07-13T17:09:30;24.70;58.30
831;DHT22;397;50.564;7.272;2023-07-13T17:11:57;24.60;60.20
831;DHT22;397;50.564;7.272;2023-07-13T17:14:26;24.50;60.80
831;DHT22;397;50.564;7.272;2023-07-13T17:16:56;24.50;61.70
831;DHT22;397;50.564;7.272;2023-07-13T17:19:27;24.30;62.20